Time;durP1;ratioP1;P1;durP2;ratioP2;P2;SDS_P1;SDS_P2;PMS_P1;PMS_P2;Temp;Humidity;BMP_temperature;BMP_pressure;BME280_temperature;BME280_humidity;BME280_pressure;Samples;Min_cycle;Max_cycle;Signal;HPM_P1;HPM_P2
2021/06/04 00:00:09;;;;;;;7.63;5.22;;;16.80;99.90;;;;;;5072784;28;20048;-80
2021/06/04 00:02:35;;;;;;;6.80;5.18;;;16.70;99.90;;;;;;5072597;28;20119;-79
2021/06/04 00:05:00;;;;;;;9.30;5.75;;;16.80;99.90;;;;;;5072721;28;20042;-80
2021/06/04 00:07:26;;;;;;;8.57;5.20;;;16.70;99.90;;;;;;5074105;28;20036;-80
2021/06/04 00:09:52;;;;;;;7.97;5.78;;;16.70;99.90;;;;;;5089437;28;20054;-80
2021/06/04 00:12:17;;;;;;;6.80;5.05;;;16.70;99.90;;;;;;5072605;28;20032;-80
2021/06/04 00:14:43;;;;;;;9.85;5.82;;;16.60;99.90;;;;;;5073884;28;20563;-79
2021/06/04 00:17:14;;;;;;;8.38;5.28;;;16.60;99.90;;;;;;5072388;28;20460;-79
2021/06/04 00:19:41;;;;;;;8.55;5.32;;;16.60;99.90;;;;;;5072629;28;20045;-79
2021/06/04 00:22:10;;;;;;;7.10;5.32;;;16.50;99.90;;;;;;5072517;28;20045;-79
2021/06/04 00:24:37;;;;;;;10.90;6.07;;;16.30;99.90;;;;;;5073803;28;20098;-78
2021/06/04 00:27:03;;;;;;;7.65;5.22;;;16.20;99.90;;;;;;5063066;28;20044;-79
2021/06/04 00:29:29;;;;;;;7.90;5.70;;;16.20;99.90;;;;;;5070860;28;20082;-80
2021/06/04 00:31:55;;;;;;;10.45;6.00;;;16.00;99.90;;;;;;5072463;28;20032;-80
2021/06/04 00:34:23;;;;;;;8.60;6.07;;;16.00;99.90;;;;;;5073472;28;20390;-79
2021/06/04 00:36:49;;;;;;;9.95;5.43;;;16.00;99.90;;;;;;5072354;28;20110;-79
2021/06/04 00:39:17;;;;;;;8.43;5.38;;;16.10;99.90;;;;;;5072766;28;20086;-80
2021/06/04 00:41:47;;;;;;;7.10;5.03;;;16.10;99.90;;;;;;5073894;28;20040;-80
2021/06/04 00:44:14;;;;;;;7.28;4.82;;;16.20;99.90;;;;;;5075991;28;20132;-79
2021/06/04 00:46:41;;;;;;;6.85;5.07;;;16.20;99.90;;;;;;5075263;28;20032;-80
2021/06/04 00:49:07;;;;;;;6.47;4.57;;;16.20;99.90;;;;;;5066674;28;20049;-80
2021/06/04 00:51:38;;;;;;;7.03;5.50;;;16.10;99.90;;;;;;5087686;28;20041;-80
2021/06/04 00:54:06;;;;;;;9.00;5.50;;;16.10;99.90;;;;;;5075981;28;20045;-79
2021/06/04 00:56:34;;;;;;;9.57;5.45;;;16.10;99.90;;;;;;5075876;28;20036;-79
2021/06/04 00:59:01;;;;;;;8.18;5.65;;;15.90;99.90;;;;;;5077416;28;20040;-79
2021/06/04 01:01:30;;;;;;;7.35;5.53;;;15.90;99.90;;;;;;5075809;28;20575;-80
2021/06/04 01:04:05;;;;;;;7.03;4.97;;;15.90;99.90;;;;;;5075910;28;20496;-80
2021/06/04 01:06:37;;;;;;;8.05;5.50;;;16.00;99.90;;;;;;5075420;28;20389;-80
2021/06/04 01:09:32;;;;;;;8.02;5.78;;;16.00;99.90;;;;;;5075780;28;20049;-79
2021/06/04 01:12:21;;;;;;;10.02;5.90;;;16.00;99.90;;;;;;5077100;28;20032;-78
2021/06/04 01:14:56;;;;;;;8.18;6.05;;;15.90;99.90;;;;;;5077257;28;20044;-79
2021/06/04 01:17:26;;;;;;;8.10;5.90;;;15.90;99.90;;;;;;5077474;28;20451;-78
2021/06/04 01:19:58;;;;;;;8.23;6.38;;;15.80;99.90;;;;;;5077481;28;20128;-80
2021/06/04 01:22:35;;;;;;;9.85;6.03;;;15.90;99.90;;;;;;5076273;28;20041;-79
2021/06/04 01:25:27;;;;;;;8.82;5.43;;;15.80;99.90;;;;;;5076158;28;20052;-81
2021/06/04 01:27:57;;;;;;;9.38;5.82;;;15.80;99.90;;;;;;5076349;28;20075;-82
2021/06/04 01:30:28;;;;;;;7.20;5.30;;;15.70;99.90;;;;;;5076162;28;20051;-79
2021/06/04 01:32:57;;;;;;;6.68;5.32;;;15.70;99.90;;;;;;5076017;28;20583;-80
2021/06/04 01:35:27;;;;;;;9.50;5.57;;;15.70;99.90;;;;;;5075928;28;20086;-80
2021/06/04 01:37:54;;;;;;;6.45;5.15;;;15.70;99.90;;;;;;5076222;28;20040;-79
2021/06/04 01:40:26;;;;;;;8.70;5.40;;;15.70;99.90;;;;;;5070334;28;20143;-78
2021/06/04 01:42:53;;;;;;;7.82;5.95;;;15.70;99.90;;;;;;5071471;28;20128;-79
2021/06/04 01:45:23;;;;;;;9.70;5.30;;;15.70;99.90;;;;;;5064210;28;20140;-79
2021/06/04 01:47:53;;;;;;;11.52;5.85;;;15.70;99.90;;;;;;5077401;28;20514;-79
2021/06/04 01:50:24;;;;;;;10.90;5.38;;;15.70;99.90;;;;;;5077349;28;20508;-78
2021/06/04 01:52:52;;;;;;;6.15;4.63;;;15.70;99.90;;;;;;5075301;28;20032;-79
2021/06/04 01:55:21;;;;;;;7.30;5.60;;;15.60;99.90;;;;;;5076435;28;20044;-80
2021/06/04 01:57:52;;;;;;;6.93;5.53;;;15.50;99.90;;;;;;5075768;28;20036;-79
2021/06/04 02:00:24;;;;;;;9.15;5.82;;;15.50;99.90;;;;;;5076254;28;20072;-80
2021/06/04 02:02:50;;;;;;;9.45;5.88;;;15.60;99.90;;;;;;5077013;28;20578;-80
2021/06/04 02:05:19;;;;;;;8.73;5.75;;;15.50;99.90;;;;;;5075611;28;20044;-79
2021/06/04 02:07:45;;;;;;;7.80;5.63;;;15.50;99.90;;;;;;5075483;28;20045;-80
2021/06/04 02:10:16;;;;;;;8.13;5.38;;;15.40;99.90;;;;;;5076815;28;20569;-81
2021/06/04 02:12:42;;;;;;;7.47;5.38;;;15.50;99.90;;;;;;5075197;28;20045;-80
2021/06/04 02:15:11;;;;;;;7.38;5.78;;;15.40;99.90;;;;;;5075670;28;20044;-81
2021/06/04 02:17:47;;;;;;;8.93;6.43;;;15.40;99.90;;;;;;5076539;28;20408;-80
2021/06/04 02:20:18;;;;;;;9.43;6.40;;;15.40;99.90;;;;;;5075354;28;20055;-82
2021/06/04 02:22:59;;;;;;;8.85;5.78;;;15.40;99.90;;;;;;5075416;28;20121;-79
2021/06/04 02:25:34;;;;;;;7.70;6.00;;;15.30;99.90;;;;;;5075081;28;20127;-81
2021/06/04 02:28:05;;;;;;;9.55;6.45;;;15.30;99.90;;;;;;5075459;28;20050;-80
2021/06/04 02:30:35;;;;;;;8.68;6.03;;;15.00;99.90;;;;;;5076361;28;20048;-81
2021/06/04 02:33:07;;;;;;;7.88;6.13;;;15.00;99.90;;;;;;5075008;28;20049;-81
2021/06/04 02:35:39;;;;;;;8.20;6.47;;;15.00;99.90;;;;;;5075926;28;20454;-80
2021/06/04 02:38:11;;;;;;;9.07;6.20;;;15.00;99.90;;;;;;5074795;28;20036;-81
2021/06/04 02:40:42;;;;;;;8.02;6.10;;;15.00;99.90;;;;;;5076517;28;20098;-79
2021/06/04 02:43:12;;;;;;;9.13;6.85;;;15.00;99.90;;;;;;5074979;28;20044;-81
2021/06/04 02:45:41;;;;;;;8.27;6.18;;;15.10;99.90;;;;;;5074810;28;20047;-81
2021/06/04 02:48:13;;;;;;;7.90;6.32;;;15.10;99.90;;;;;;5091750;28;20046;-82
2021/06/04 02:50:41;;;;;;;8.27;6.50;;;15.10;99.90;;;;;;5074405;28;20055;-83
2021/06/04 02:53:17;;;;;;;8.95;6.75;;;15.10;99.90;;;;;;5076091;28;20144;-83
2021/06/04 02:56:03;;;;;;;8.18;5.75;;;15.00;99.90;;;;;;5075923;28;20044;-80
2021/06/04 02:58:29;;;;;;;9.68;6.60;;;15.00;99.90;;;;;;5074387;28;20416;-80
2021/06/04 03:00:55;;;;;;;8.15;5.95;;;15.00;99.90;;;;;;5074457;28;20036;-83
2021/06/04 03:03:22;;;;;;;7.75;6.18;;;15.00;99.90;;;;;;5075499;28;20066;-83
2021/06/04 03:05:48;;;;;;;10.40;5.85;;;15.00;99.90;;;;;;5073663;28;20044;-83
2021/06/04 03:08:15;;;;;;;13.40;6.00;;;15.00;99.90;;;;;;5074400;28;20051;-79
2021/06/04 03:10:44;;;;;;;7.93;6.40;;;15.00;99.90;;;;;;5074357;28;20040;-79
2021/06/04 03:13:15;;;;;;;9.23;5.35;;;15.00;99.90;;;;;;5075503;28;20040;-79
2021/06/04 03:15:45;;;;;;;6.07;5.18;;;15.00;99.90;;;;;;5074156;28;20040;-81
2021/06/04 03:18:18;;;;;;;8.02;5.13;;;14.90;99.90;;;;;;5074191;28;20124;-80
2021/06/04 03:20:46;;;;;;;8.32;5.63;;;15.00;99.90;;;;;;5074421;28;20098;-80
2021/06/04 03:23:16;;;;;;;8.68;5.80;;;15.00;99.90;;;;;;5075224;28;20485;-79
2021/06/04 03:25:45;;;;;;;8.25;5.30;;;15.00;99.90;;;;;;5074050;28;20051;-79
2021/06/04 03:28:14;;;;;;;7.13;5.40;;;15.00;99.90;;;;;;5074254;28;20576;-78
2021/06/04 03:30:43;;;;;;;9.75;6.32;;;14.90;99.90;;;;;;5073895;28;20052;-79
2021/06/04 03:33:11;;;;;;;6.82;5.55;;;15.00;99.90;;;;;;5074164;28;20117;-79
2021/06/04 03:35:37;;;;;;;8.35;6.13;;;15.00;99.90;;;;;;5073785;28;20036;-80
2021/06/04 03:38:05;;;;;;;10.30;6.78;;;15.00;99.90;;;;;;5075089;28;20075;-78
2021/06/04 03:40:32;;;;;;;10.80;6.25;;;15.10;99.90;;;;;;5073683;28;20497;-80
2021/06/04 03:43:00;;;;;;;9.40;5.85;;;15.10;99.90;;;;;;5073525;28;20036;-80
2021/06/04 03:45:31;;;;;;;7.80;5.80;;;15.10;99.90;;;;;;5073830;28;20040;-79
2021/06/04 03:47:58;;;;;;;8.57;5.97;;;15.20;99.90;;;;;;5075429;28;20119;-79
2021/06/04 03:50:24;;;;;;;6.53;5.30;;;15.20;99.90;;;;;;5074999;28;20114;-81
2021/06/04 03:52:50;;;;;;;7.32;5.53;;;15.10;99.90;;;;;;5074970;28;20404;-80
2021/06/04 03:55:22;;;;;;;7.13;5.80;;;15.20;99.90;;;;;;5073835;28;20036;-80
2021/06/04 03:57:49;;;;;;;7.30;4.85;;;15.30;99.90;;;;;;5074813;28;20512;-81
2021/06/04 04:00:19;;;;;;;8.35;4.82;;;15.30;99.90;;;;;;5073651;28;20037;-80
2021/06/04 04:02:44;;;;;;;8.07;5.22;;;15.40;99.90;;;;;;5073586;28;20048;-80
2021/06/04 04:05:11;;;;;;;7.32;5.10;;;15.40;99.90;;;;;;5072782;28;20045;-80
2021/06/04 04:07:38;;;;;;;8.43;4.90;;;15.40;99.90;;;;;;5073205;28;20051;-80
2021/06/04 04:10:05;;;;;;;8.27;5.55;;;15.50;99.90;;;;;;5072685;28;20089;-79
2021/06/04 04:12:32;;;;;;;6.50;5.30;;;15.50;99.90;;;;;;5073131;28;20032;-80
2021/06/04 04:14:58;;;;;;;6.93;5.18;;;15.60;99.90;;;;;;5073764;28;20094;-79
2021/06/04 04:17:23;;;;;;;7.80;5.60;;;15.70;99.90;;;;;;5074458;28;20033;-80
2021/06/04 04:19:49;;;;;;;6.82;5.45;;;15.80;99.90;;;;;;5077969;28;20123;-80
2021/06/04 04:22:15;;;;;;;9.02;6.78;;;16.00;99.90;;;;;;5076957;28;20126;-79
2021/06/04 04:24:41;;;;;;;7.10;5.55;;;16.10;99.90;;;;;;5076674;28;20058;-81
2021/06/04 04:27:09;;;;;;;8.77;6.68;;;16.30;99.90;;;;;;5076747;28;20036;-79
2021/06/04 04:29:36;;;;;;;7.97;6.45;;;16.40;99.90;;;;;;5077822;28;20120;-79
2021/06/04 04:32:05;;;;;;;8.13;6.40;;;16.50;99.90;;;;;;5077599;28;20041;-79
2021/06/04 04:34:31;;;;;;;7.75;6.40;;;16.60;99.90;;;;;;5077844;28;20037;-80
2021/06/04 04:36:59;;;;;;;8.82;7.65;;;16.70;99.90;;;;;;5076319;28;20055;-79
2021/06/04 04:39:28;;;;;;;9.10;6.75;;;16.80;99.90;;;;;;5076347;28;20063;-79
2021/06/04 04:41:54;;;;;;;11.53;8.37;;;16.90;99.90;;;;;;5076159;28;20044;-80
2021/06/04 04:44:23;;;;;;;13.10;7.18;;;17.00;99.90;;;;;;5077673;28;20299;-79
2021/06/04 04:46:50;;;;;;;9.77;7.78;;;17.10;99.90;;;;;;5076310;28;20044;-80
2021/06/04 04:49:16;;;;;;;9.93;7.75;;;17.20;99.90;;;;;;5076482;28;20044;-80
2021/06/04 04:51:41;;;;;;;10.82;7.97;;;17.20;99.90;;;;;;5076398;28;20570;-80
2021/06/04 04:54:08;;;;;;;8.27;6.78;;;17.20;99.90;;;;;;5075900;28;20431;-80
2021/06/04 04:56:35;;;;;;;11.90;7.50;;;17.20;99.90;;;;;;5076219;28;20481;-79
2021/06/04 04:59:01;;;;;;;10.23;7.10;;;17.30;99.90;;;;;;5075852;28;20135;-80
2021/06/04 05:01:26;;;;;;;10.30;7.10;;;17.30;99.90;;;;;;5075780;28;20443;-80
2021/06/04 05:03:53;;;;;;;10.13;7.45;;;17.30;99.90;;;;;;5075790;28;20040;-81
2021/06/04 05:06:19;;;;;;;9.43;6.68;;;17.20;99.90;;;;;;5077121;28;20111;-79
2021/06/04 05:08:46;;;;;;;8.77;6.80;;;17.30;99.90;;;;;;5075838;28;20522;-79
2021/06/04 05:11:13;;;;;;;8.38;6.75;;;17.30;99.90;;;;;;5077037;28;20063;-79
2021/06/04 05:13:38;;;;;;;8.27;6.90;;;17.20;99.90;;;;;;5077090;28;20028;-80
2021/06/04 05:16:05;;;;;;;8.75;6.68;;;17.30;99.90;;;;;;5075871;28;20378;-79
2021/06/04 05:18:32;;;;;;;10.77;7.82;;;17.20;99.90;;;;;;5077186;28;20488;-81
2021/06/04 05:21:00;;;;;;;8.50;6.82;;;17.20;99.90;;;;;;5075578;28;20416;-80
2021/06/04 05:23:26;;;;;;;8.70;7.20;;;17.10;99.90;;;;;;5075660;28;20131;-79
2021/06/04 05:25:52;;;;;;;12.27;7.55;;;17.20;99.90;;;;;;5075907;28;20079;-79
2021/06/04 05:28:21;;;;;;;10.13;6.43;;;17.20;99.90;;;;;;5075267;28;20032;-81
2021/06/04 05:30:49;;;;;;;9.83;7.47;;;17.20;99.90;;;;;;5075576;28;20412;-80
2021/06/04 05:33:17;;;;;;;9.93;6.85;;;17.20;99.90;;;;;;5075499;28;20037;-80
2021/06/04 05:35:43;;;;;;;9.18;7.40;;;17.30;99.90;;;;;;5075210;28;20098;-81
2021/06/04 05:38:10;;;;;;;10.30;8.50;;;17.30;99.90;;;;;;5074957;28;20488;-79
2021/06/04 05:40:38;;;;;;;10.05;8.18;;;17.30;99.90;;;;;;5075027;28;20131;-78
2021/06/04 05:43:06;;;;;;;11.98;9.48;;;17.20;99.90;;;;;;5093441;22;20450;-82
2021/06/04 05:45:35;;;;;;;10.30;8.73;;;17.20;99.90;;;;;;5060385;28;20052;-83
2021/06/04 05:48:01;;;;;;;11.68;9.40;;;17.30;99.90;;;;;;5060781;28;20044;-83
2021/06/04 05:50:30;;;;;;;9.93;8.07;;;17.00;99.90;;;;;;5059489;28;20060;-83
2021/06/04 05:52:56;;;;;;;11.48;9.73;;;17.00;99.90;;;;;;5059298;28;20489;-83
2021/06/04 05:55:26;;;;;;;11.10;9.77;;;17.00;99.90;;;;;;5060267;28;20064;-83
2021/06/04 05:57:53;;;;;;;11.27;9.20;;;16.90;99.90;;;;;;5060233;28;20421;-84
2021/06/04 06:00:22;;;;;;;13.32;11.25;;;17.00;99.90;;;;;;5059995;28;20051;-83
2021/06/04 06:02:48;;;;;;;14.40;11.27;;;16.80;99.90;;;;;;5060548;28;20055;-84
2021/06/04 06:05:15;;;;;;;18.08;12.35;;;16.90;99.90;;;;;;5042438;28;20040;-82
2021/06/04 06:07:41;;;;;;;15.18;12.43;;;16.80;99.90;;;;;;5060051;28;20105;-83
2021/06/04 06:10:08;;;;;;;14.20;11.48;;;16.90;99.90;;;;;;5060397;28;20037;-83
2021/06/04 06:12:35;;;;;;;14.95;12.15;;;17.00;99.90;;;;;;5042319;28;20094;-83
2021/06/04 06:15:01;;;;;;;16.45;12.77;;;17.10;99.90;;;;;;5060084;28;20063;-84
2021/06/04 06:17:27;;;;;;;15.15;11.48;;;17.20;99.90;;;;;;5060493;28;20029;-83
2021/06/04 06:19:53;;;;;;;15.65;12.02;;;17.20;99.90;;;;;;5042871;28;20033;-83
2021/06/04 06:22:18;;;;;;;15.00;11.55;;;17.30;99.90;;;;;;5060118;28;20090;-84
2021/06/04 06:24:44;;;;;;;11.77;9.32;;;17.20;99.90;;;;;;5041618;28;20072;-82
2021/06/04 06:27:10;;;;;;;12.30;8.70;;;17.30;99.90;;;;;;5059383;28;20405;-83
2021/06/04 06:29:37;;;;;;;10.10;8.57;;;17.50;99.90;;;;;;5041986;28;20040;-82
2021/06/04 06:32:05;;;;;;;13.40;8.82;;;17.60;99.90;;;;;;5060322;28;20041;-84
2021/06/04 06:34:31;;;;;;;10.70;8.95;;;17.70;99.90;;;;;;5042341;28;20574;-82
2021/06/04 06:36:57;;;;;;;10.55;8.40;;;17.80;99.90;;;;;;5042443;28;20057;-84
2021/06/04 06:39:26;;;;;;;12.80;9.68;;;17.90;99.90;;;;;;5060008;28;20076;-84
2021/06/04 06:41:53;;;;;;;11.32;9.48;;;17.90;99.90;;;;;;5060438;28;20110;-83
2021/06/04 06:44:19;;;;;;;15.57;9.82;;;17.90;99.90;;;;;;5042827;28;20481;-84
2021/06/04 06:46:47;;;;;;;11.18;9.30;;;17.80;99.90;;;;;;5060129;28;20053;-84
2021/06/04 06:49:13;;;;;;;13.35;9.93;;;18.60;99.90;;;;;;5060615;28;20092;-84
2021/06/04 06:51:39;;;;;;;13.05;10.20;;;18.10;99.90;;;;;;5043126;28;20063;-84
2021/06/04 06:54:07;;;;;;;13.30;9.75;;;18.20;99.90;;;;;;5043069;28;20385;-84
2021/06/04 06:56:33;;;;;;;12.32;9.60;;;18.30;99.90;;;;;;5043495;28;20033;-84
2021/06/04 06:59:00;;;;;;;14.00;10.23;;;19.60;99.90;;;;;;5044719;28;20033;-84
2021/06/04 07:01:27;;;;;;;13.23;10.85;;;18.40;99.90;;;;;;5060610;28;20048;-84
2021/06/04 07:03:54;;;;;;;16.02;11.82;;;18.50;99.90;;;;;;5043978;28;20048;-84
2021/06/04 07:06:22;;;;;;;16.67;12.80;;;18.50;99.90;;;;;;5062844;28;20040;-84
2021/06/04 07:08:48;;;;;;;16.10;13.18;;;18.50;99.90;;;;;;5053976;28;20091;-84
2021/06/04 07:11:16;;;;;;;17.77;14.15;;;18.60;99.90;;;;;;5047147;28;20041;-82
2021/06/04 07:13:41;;;;;;;16.02;11.88;;;18.50;99.90;;;;;;5057478;28;20045;-83
2021/06/04 07:16:10;;;;;;;15.20;12.32;;;18.60;99.90;;;;;;5055912;28;20124;-83
2021/06/04 07:18:38;;;;;;;18.83;13.52;;;18.60;99.90;;;;;;5039848;28;20098;-83
2021/06/04 07:21:07;;;;;;;17.38;12.68;;;19.40;99.90;;;;;;5056725;28;20040;-83
2021/06/04 07:23:33;;;;;;;18.90;12.90;;;18.70;99.90;;;;;;5038562;28;20044;-83
2021/06/04 07:25:59;;;;;;;17.73;13.43;;;18.70;99.90;;;;;;5056765;28;20493;-82
2021/06/04 07:28:29;;;;;;;20.33;14.20;;;21.00;99.90;;;;;;5055057;28;20051;-83
2021/06/04 07:30:55;;;;;;;;;;;18.80;99.90;;;;;;5038852;28;20512;-83
2021/06/04 07:33:26;;;;;;;19.20;13.27;;;18.90;99.90;;;;;;5038125;28;20007;-81
2021/06/04 07:35:53;;;;;;;19.25;13.00;;;19.00;99.90;;;;;;5056413;28;20048;-82
2021/06/04 07:38:20;;;;;;;16.67;12.20;;;19.10;99.90;;;;;;5038971;28;20045;-81
2021/06/04 07:40:46;;;;;;;20.38;13.32;;;19.10;99.90;;;;;;5038345;28;20044;-82
2021/06/04 07:43:16;;;;;;;17.95;13.65;;;19.30;99.90;;;;;;5038057;28;20045;-81
2021/06/04 07:45:45;;;;;;;17.60;12.38;;;19.30;99.90;;;;;;5056004;28;20132;-83
2021/06/04 07:48:14;;;;;;;18.70;13.43;;;19.30;99.90;;;;;;5038586;28;20037;-81
2021/06/04 07:50:41;;;;;;;17.52;12.95;;;19.50;99.90;;;;;;5056004;28;20040;-81
2021/06/04 07:53:07;;;;;;;19.05;12.07;;;19.40;99.90;;;;;;5037379;28;20051;-81
2021/06/04 07:55:34;;;;;;;18.10;13.43;;;19.50;99.90;;;;;;5056243;28;20041;-83
2021/06/04 07:58:00;;;;;;;18.30;13.73;;;19.60;99.90;;;;;;5056181;28;20036;-83
2021/06/04 08:00:29;;;;;;;19.75;13.27;;;19.50;99.90;;;;;;5038434;28;20532;-83
2021/06/04 08:02:56;;;;;;;15.27;12.05;;;19.60;99.90;;;;;;5054790;28;20064;-82
2021/06/04 08:05:23;;;;;;;15.57;11.48;;;19.80;99.90;;;;;;5038045;28;20044;-83
2021/06/04 08:07:48;;;;;;;16.35;11.82;;;20.00;99.90;;;;;;5056013;28;20402;-83
2021/06/04 08:10:15;;;;;;;16.50;12.88;;;20.20;99.90;;;;;;5038265;28;20067;-83
2021/06/04 08:12:44;;;;;;;15.80;11.55;;;20.10;99.90;;;;;;5038614;28;20408;-83
2021/06/04 08:15:13;;;;;;;18.85;12.73;;;22.50;99.90;;;;;;5038054;28;20041;-82
2021/06/04 08:17:41;;;;;;;17.73;12.98;;;20.20;99.90;;;;;;5055762;28;20139;-82
2021/06/04 08:20:10;;;;;;;22.42;13.48;;;20.20;99.90;;;;;;5056279;28;20045;-84
2021/06/04 08:22:39;;;;;;;18.67;12.63;;;20.30;99.90;;;;;;5037878;28;20067;-83
2021/06/04 08:25:06;;;;;;;19.15;14.02;;;20.40;99.90;;;;;;5037769;28;20143;-83
2021/06/04 08:27:31;;;;;;;21.10;14.30;;;20.60;99.90;;;;;;5055587;28;20419;-82
2021/06/04 08:29:58;;;;;;;18.48;14.13;;;20.70;99.90;;;;;;5038023;28;20040;-83
2021/06/04 08:32:24;;;;;;;20.90;14.70;;;20.70;99.90;;;;;;5056145;28;20053;-84
2021/06/04 08:34:49;;;;;;;19.63;13.77;;;20.90;99.90;;;;;;5055953;28;20416;-83
2021/06/04 08:37:15;;;;;;;17.40;11.82;;;21.10;99.90;;;;;;5037935;28;20083;-82
2021/06/04 08:39:43;;;;;;;20.17;14.40;;;21.10;99.90;;;;;;5038062;28;20072;-82
2021/06/04 08:42:36;;;;;;;21.42;13.52;;;21.40;99.90;;;;;;5037731;28;20068;-82
2021/06/04 08:45:28;;;;;;;19.92;13.13;;;21.40;99.90;;;;;;5054226;28;20045;-81
2021/06/04 08:48:08;;;;;;;16.73;11.50;;;21.80;99.90;;;;;;5037338;28;20137;-83
2021/06/04 08:50:42;;;;;;;14.77;11.02;;;22.00;99.90;;;;;;5055546;28;20033;-84
2021/06/04 08:53:18;;;;;;;14.20;11.27;;;22.30;99.90;;;;;;5037243;28;20497;-83
2021/06/04 08:55:49;;;;;;;12.95;9.40;;;22.70;99.90;;;;;;5037072;28;20045;-82
2021/06/04 08:58:35;;;;;;;17.10;10.05;;;23.00;99.90;;;;;;5055519;28;20115;-82
2021/06/04 09:01:14;;;;;;;12.27;8.73;;;23.30;99.90;;;;;;5055909;28;20447;-82
2021/06/04 09:03:44;;;;;;;14.15;9.23;;;23.40;99.90;;;;;;5039224;28;20489;-82
2021/06/04 09:06:13;;;;;;;11.00;8.07;;;23.50;99.90;;;;;;5059521;28;20143;-81
2021/06/04 09:08:39;;;;;;;;;;;23.60;99.90;;;;;;5041429;28;20045;-83
2021/06/04 09:11:12;;;;;;;13.55;9.70;;;23.60;99.90;;;;;;5041753;28;20338;-84
2021/06/04 09:13:38;;;;;;;16.25;9.85;;;23.50;99.90;;;;;;5041085;28;20037;-84
2021/06/04 09:16:12;;;;;;;15.63;10.73;;;23.60;99.90;;;;;;5057654;28;20112;-83
2021/06/04 09:18:45;;;;;;;14.27;10.43;;;23.70;99.90;;;;;;5058550;28;20048;-83
2021/06/04 09:21:14;;;;;;;15.32;11.10;;;24.00;99.90;;;;;;5037707;28;20071;-82
2021/06/04 09:23:43;;;;;;;16.55;11.13;;;24.30;99.90;;;;;;5037853;28;20044;-82
2021/06/04 09:26:12;;;;;;;18.95;12.57;;;24.30;99.90;;;;;;5036733;28;20103;-84
2021/06/04 09:28:41;;;;;;;16.63;12.73;;;24.50;99.90;;;;;;5017464;28;20037;-82
2021/06/04 09:31:32;;;;;;;15.90;11.75;;;24.60;99.90;;;;;;5035288;28;20076;-83
2021/06/04 09:34:11;;;;;;;18.02;13.07;;;24.80;99.90;;;;;;5033441;28;20053;-84
2021/06/04 09:36:43;;;;;;;17.83;11.40;;;25.00;99.90;;;;;;5033883;28;20136;-84
2021/06/04 09:39:24;;;;;;;14.88;10.50;;;25.10;99.90;;;;;;5032926;28;20053;-83
2021/06/04 09:41:52;;;;;;;15.20;11.52;;;25.30;99.90;;;;;;5039502;28;20045;-84
2021/06/04 09:44:26;;;;;;;14.35;10.75;;;25.30;99.90;;;;;;5054616;28;20040;-84
2021/06/04 09:47:01;;;;;;;17.67;10.88;;;25.30;99.90;;;;;;5053407;28;20083;-84
2021/06/04 09:49:34;;;;;;;13.88;9.50;;;25.30;99.90;;;;;;5033151;28;20042;-85
2021/06/04 09:52:31;;;;;;;14.80;11.15;;;25.40;99.90;;;;;;5034061;28;20572;-82
2021/06/04 09:55:08;;;;;;;14.25;11.23;;;25.20;99.90;;;;;;4957427;28;20057;-83
2021/06/04 09:57:35;;;;;;;17.42;12.02;;;25.30;99.90;;;;;;5023972;28;20046;-85
2021/06/04 10:00:14;;;;;;;13.57;10.32;;;25.20;99.90;;;;;;5016715;28;20064;-85
2021/06/04 10:02:41;;;;;;;14.05;10.13;;;25.30;99.90;;;;;;5016649;28;20049;-84
2021/06/04 10:05:13;;;;;;;16.42;11.88;;;25.40;99.90;;;;;;5034908;28;20533;-83
2021/06/04 10:07:40;;;;;;;11.25;8.38;;;25.50;99.90;;;;;;5016834;28;20045;-84
2021/06/04 10:10:11;;;;;;;14.52;10.38;;;26.90;99.90;;;;;;5035003;28;20041;-83
2021/06/04 10:12:41;;;;;;;15.40;10.20;;;25.60;99.90;;;;;;5016475;28;20045;-83
2021/06/04 10:15:15;;;;;;;18.92;9.80;;;25.90;99.90;;;;;;5033853;28;20053;-83
2021/06/04 10:20:48;;;;;;;14.85;11.50;;;25.70;99.90;;;;;;5035192;28;20069;-82
2021/06/04 10:23:20;;;;;;;16.00;10.80;;;25.70;99.90;;;;;;4973354;28;20059;-85
2021/06/04 10:25:51;;;;;;;15.10;10.57;;;25.80;99.90;;;;;;4956934;28;20481;-83
2021/06/04 10:28:36;;;;;;;16.65;11.18;;;25.20;99.90;;;;;;4989275;28;20136;-83
2021/06/04 10:31:10;;;;;;;14.90;11.75;;;24.90;99.90;;;;;;5034781;28;20046;-83
2021/06/04 10:33:46;;;;;;;17.60;12.32;;;24.50;99.90;;;;;;5016924;28;20087;-84
2021/06/04 10:36:15;;;;;;;13.40;11.18;;;24.20;99.90;;;;;;5017756;28;20045;-83
2021/06/04 10:38:46;;;;;;;16.90;12.30;;;24.40;99.90;;;;;;5034967;28;20037;-82
2021/06/04 10:41:14;;;;;;;14.65;11.75;;;24.00;99.90;;;;;;5035708;28;20044;-82
2021/06/04 10:43:57;;;;;;;18.45;12.43;;;24.20;99.90;;;;;;5017898;28;20045;-84
2021/06/04 10:46:31;;;;;;;15.55;10.85;;;24.00;99.90;;;;;;5022443;28;20045;-87
2021/06/04 10:49:17;;;;;;;13.10;9.45;;;24.20;99.90;;;;;;5051470;28;20095;-84
2021/06/04 10:51:54;;;;;;;13.07;9.60;;;24.80;99.90;;;;;;5036961;28;20049;-83
2021/06/04 10:54:25;;;;;;;16.40;9.13;;;25.20;99.90;;;;;;5055031;28;20040;-85
2021/06/04 10:56:59;;;;;;;16.83;10.70;;;25.40;99.90;;;;;;5055343;28;20044;-85
2021/06/04 10:59:34;;;;;;;16.25;11.57;;;24.90;99.90;;;;;;5037661;28;20167;-82
2021/06/04 11:02:05;;;;;;;16.88;11.40;;;24.50;99.90;;;;;;5037401;28;20489;-83
2021/06/04 11:04:43;;;;;;;16.45;11.98;;;24.30;99.90;;;;;;5056510;28;20136;-84
2021/06/04 11:07:17;;;;;;;18.20;12.32;;;24.30;99.90;;;;;;5037468;28;20140;-84
2021/06/04 11:09:55;;;;;;;15.38;11.60;;;24.30;99.90;;;;;;5055692;28;20045;-84
2021/06/04 11:12:45;;;;;;;17.15;10.30;;;24.40;99.90;;;;;;5038080;28;20041;-83
2021/06/04 11:15:16;;;;;;;16.08;10.95;;;24.60;99.90;;;;;;5055090;28;20045;-83
2021/06/04 11:17:46;;;;;;;14.32;9.85;;;24.60;99.90;;;;;;5038130;28;20460;-86
2021/06/04 11:20:14;;;;;;;;;;;24.80;99.90;;;;;;5056089;28;20052;-83
2021/06/04 11:22:57;;;;;;;16.87;11.50;;;24.80;99.90;;;;;;5055002;28;19931;-82
2021/06/04 11:25:31;;;;;;;17.40;10.80;;;24.80;99.90;;;;;;5035120;28;20052;-85
2021/06/04 11:28:06;;;;;;;19.05;11.02;;;24.70;99.90;;;;;;5035882;28;20051;-83
2021/06/04 11:30:33;;;;;;;15.93;11.18;;;24.70;99.90;;;;;;5034396;28;20073;-81
2021/06/04 11:33:04;;;;;;;16.80;11.15;;;24.80;99.90;;;;;;5043738;28;20463;-86
2021/06/04 11:35:37;;;;;;;14.55;10.68;;;24.80;99.90;;;;;;5055684;28;20045;-85
2021/06/04 11:38:10;;;;;;;15.35;10.30;;;24.90;99.90;;;;;;5034510;28;20045;-83
2021/06/04 11:40:40;;;;;;;15.82;9.73;;;25.10;99.90;;;;;;5034396;28;20053;-83
2021/06/04 11:43:09;;;;;;;14.77;10.63;;;25.20;99.90;;;;;;5074652;22;20093;-88
2021/06/04 11:45:36;;;;;;;13.90;10.38;;;25.30;99.90;;;;;;5085579;28;20037;-88
2021/06/04 11:48:33;;;;;;;14.60;11.00;;;25.30;99.90;;;;;;5070003;28;20102;-87
2021/06/04 11:51:28;;;;;;;13.50;10.30;;;25.20;99.90;;;;;;5085257;28;20037;-89
2021/06/04 11:53:55;;;;;;;11.98;9.40;;;25.20;99.90;;;;;;5085271;28;20387;-87
2021/06/04 11:56:46;;;;;;;11.82;8.40;;;25.10;99.90;;;;;;5068469;28;20040;-86
2021/06/04 11:59:34;;;;;;;14.27;9.15;;;25.20;99.90;;;;;;5068327;28;20037;-86
2021/06/04 12:02:01;;;;;;;16.25;10.45;;;25.10;99.90;;;;;;5067873;28;20048;-85
2021/06/04 12:04:27;;;;;;;13.65;8.75;;;25.20;99.90;;;;;;5068090;28;20044;-88
2021/06/04 12:07:01;;;;;;;14.10;9.43;;;25.50;99.90;;;;;;5068465;28;20039;-88
2021/06/04 12:09:47;;;;;;;13.85;9.40;;;25.70;99.90;;;;;;5065143;28;20045;-87
2021/06/04 12:12:57;;;;;;;12.82;8.93;;;26.10;99.90;;;;;;5048476;28;20094;-88
2021/06/04 12:15:40;;;;;;;;;;;26.30;99.90;;;;;;5068375;28;20443;-88
2021/06/04 12:18:48;;;;;;;12.30;9.05;;;26.20;99.90;;;;;;5066206;28;20003;-86
2021/06/04 12:21:47;;;;;;;14.50;10.23;;;25.80;99.90;;;;;;5068407;28;20044;-88
2021/06/04 12:24:52;;;;;;;13.80;9.38;;;25.60;99.90;;;;;;5068525;28;20515;-87
2021/06/04 12:27:54;;;;;;;12.80;9.13;;;25.20;99.90;;;;;;5069259;28;20033;-86
2021/06/04 12:30:44;;;;;;;13.07;8.85;;;25.10;99.90;;;;;;5068483;28;20044;-88
2021/06/04 12:33:10;;;;;;;16.45;9.68;;;25.30;99.90;;;;;;5069568;28;20519;-87
2021/06/04 12:35:40;;;;;;;15.05;9.43;;;25.70;99.90;;;;;;5071838;28;20041;-88
2021/06/04 12:38:22;;;;;;;11.27;8.02;;;26.20;99.90;;;;;;5072017;28;20048;-89
2021/06/04 12:40:51;;;;;;;14.90;10.43;;;26.40;99.90;;;;;;5092016;28;20131;-89
2021/06/04 12:43:21;;;;;;;;;;;26.40;99.90;;;;;;5092785;28;20094;-88
2021/06/04 12:45:57;;;;;;;18.40;11.70;;;26.30;99.90;;;;;;5075335;28;20402;-89
2021/06/04 12:48:26;;;;;;;15.30;10.07;;;25.80;99.90;;;;;;5075534;28;20059;-88
2021/06/04 12:51:06;;;;;;;17.35;10.95;;;25.40;99.90;;;;;;5075690;28;20040;-88
2021/06/04 12:53:34;;;;;;;18.75;11.40;;;25.30;99.90;;;;;;5075533;28;20044;-89
2021/06/04 12:56:16;;;;;;;19.05;11.13;;;25.10;99.90;;;;;;5075613;28;20135;-89
2021/06/04 12:58:44;;;;;;;14.13;11.05;;;25.20;99.90;;;;;;5076569;28;20039;-89